Relatórios de METAR próximas

 

LPAR - Alverca, Portugal
Distance from station: S 38km
Actualizado: 18/10/2019 17:00
NÃO Actual
Muito Nublado
Muito Nublado
 Vento de O
Vento: O 15 km/h
Temperatura: 20°C
Ponto de Orvalho: 11°C
Humidade: 56%
Barómetro: 1017 hPa
Nuvens: Muito Nublado
Visibilidade: 10 km
Cloud details: Few Clouds 762 m
Muito Nublado 1372 m
2019/10/18 16:00 LPAR 181600Z 26008KT 9999 FEW025 BKN045 20/11 Q1017
LPPT - Lisbon/Portela, Portugal
Distance from station: S 52km
Actualizado: 18/10/2019 21:30
Muito Nublado
Muito Nublado
 Vento de SO
Vento: SO 11 km/h
Temperatura: 17°C
Ponto de Orvalho: 13°C
Humidade: 77%
Barómetro: 1016 hPa
Nuvens: Muito Nublado
Visibilidade: 10 km
Cloud details: Muito Nublado 1463 m
2019/10/18 20:30 LPPT 182030Z 23006KT 9999 BKN048 17/13 Q1016
 
LPST - Sintra/Granja (a, Portugal
Distance from station: SSO 53km
Actualizado: 18/10/2019 17:00
NÃO Actual
Muito Nublado
Muito Nublado
 Vento de O
Vento: O 13 km/h
Temperatura: 18°C
Ponto de Orvalho: 11°C
Humidade: 64%
Barómetro: 1017 hPa
Nuvens: Muito Nublado
Visibilidade: 10 km
Cloud details: Few Clouds 762 m
Muito Nublado 1219 m
2019/10/18 16:00 LPST 181600Z 26007KT 9999 FEW025 BKN040 18/11 Q1017
LPMT - Montijo (por-Afb, Portugal
Distance from station: S 59km
Actualizado: 18/10/2019 21:00
Céu Limpo
Céu Limpo
 Vento de SO
Vento: SO 7 km/h
Temperatura: 17°C
Ponto de Orvalho: 13°C
Humidade: 77%
Barómetro: 1016 hPa
Resumo: Céu Limpo
Visibilidade: greater than 10 km
2019/10/18 20:00 LPMT 182000Z 23004KT 200V260 CAVOK 17/13 Q1016
 
LPCS - Cascais, Portugal
Distance from station: SSO 63km
Actualizado: 18/10/2019 21:00
Muito Nublado
Muito Nublado
 Vento de calm
Vento: Calmo
Temperatura: 16°C
Ponto de Orvalho: 14°C
Humidade: 88%
Barómetro: 1016 hPa
Nuvens: Muito Nublado
Visibilidade: 10 km
Cloud details: Few Clouds 549 m
Muito Nublado 762 m
2019/10/18 20:00 LPCS 182000Z 00000KT 9999 FEW018 BKN025 16/14 Q1016
LPMR - Monte Real(Por-A, Portugal
Distance from station: N 67km
Actualizado: 18/10/2019 21:00
Parc. Nublado
Parc. Nublado
 Vento de SSO
Vento: SSO 11 km/h
Temperatura: 16°C
Ponto de Orvalho: 14°C
Humidade: 88%
Barómetro: 1015 hPa
Nuvens: Parc. Nublado
Visibilidade: 10 km
Cloud details: Few Clouds 610 m
Parc. Nublado 1372 m
2019/10/18 20:00 LPMR 182000Z 21006KT 9999 FEW020 SCT045 16/14 Q1015